createdAt,value
2019-01-02T00:02:23.635Z,5.80
2019-01-02T00:04:52.176Z,11.87
2019-01-02T00:07:20.878Z,8.17
2019-01-02T00:09:49.563Z,5.17
2019-01-02T00:12:18.623Z,6.73
2019-01-02T00:14:47.672Z,7.97
2019-01-02T00:17:16.336Z,6.07
2019-01-02T00:19:44.803Z,11.03
2019-01-02T00:22:13.619Z,6.80
2019-01-02T00:24:42.229Z,5.60
2019-01-02T00:27:10.899Z,11.00
2019-01-02T00:29:39.983Z,7.67
2019-01-02T00:32:08.415Z,9.27
2019-01-02T00:34:37.716Z,6.63
2019-01-02T00:37:07.510Z,8.10
2019-01-02T00:39:36.239Z,6.10
2019-01-02T00:42:04.694Z,4.83
2019-01-02T00:44:33.644Z,7.20
2019-01-02T00:47:02.092Z,6.97
2019-01-02T00:49:30.747Z,4.27
2019-01-02T00:51:59.318Z,7.83
2019-01-02T00:54:27.911Z,6.50
2019-01-02T00:56:56.635Z,5.33
2019-01-02T00:59:25.028Z,4.17
2019-01-02T01:01:53.816Z,8.20
2019-01-02T01:04:22.864Z,7.23
2019-01-02T01:06:51.519Z,7.00
2019-01-02T01:09:20.450Z,10.67
2019-01-02T01:11:49.204Z,6.80
2019-01-02T01:14:18.039Z,5.50
2019-01-02T01:16:46.922Z,6.43
2019-01-02T01:19:15.826Z,10.03
2019-01-02T01:21:44.231Z,6.83
2019-01-02T01:24:13.219Z,5.03
2019-01-02T01:26:41.947Z,11.17
2019-01-02T01:29:10.527Z,4.70
2019-01-02T01:31:39.820Z,7.93
2019-01-02T01:34:08.468Z,12.27
2019-01-02T01:36:37.439Z,6.77
2019-01-02T01:39:09.031Z,5.07
2019-01-02T01:41:37.855Z,16.23
2019-01-02T01:44:06.524Z,7.63
2019-01-02T01:46:35.103Z,4.73
2019-01-02T01:49:03.759Z,4.87
2019-01-02T01:51:32.810Z,3.60
2019-01-02T01:54:01.466Z,7.93
2019-01-02T01:56:29.857Z,14.60
2019-01-02T01:58:58.338Z,5.63
2019-01-02T02:01:26.900Z,3.33
2019-01-02T02:03:56.020Z,4.50
2019-01-02T02:06:24.498Z,4.43
2019-01-02T02:08:52.920Z,2.90
2019-01-02T02:11:21.291Z,4.37
2019-01-02T02:13:49.852Z,4.37
2019-01-02T02:16:19.316Z,3.97
2019-01-02T02:18:47.878Z,4.97
2019-01-02T02:21:16.592Z,4.57
2019-01-02T02:23:45.492Z,6.60
2019-01-02T02:26:14.060Z,7.00
2019-01-02T02:28:43.012Z,6.10
2019-01-02T02:31:11.571Z,3.90
2019-01-02T02:33:40.630Z,6.93
2019-01-02T02:36:09.675Z,7.10
2019-01-02T02:38:38.395Z,4.80
2019-01-02T02:41:08.364Z,4.43
2019-01-02T02:43:37.316Z,3.00
2019-01-02T02:46:06.216Z,4.33
2019-01-02T02:48:34.794Z,5.70
2019-01-02T02:51:03.684Z,4.10
2019-01-02T02:53:32.655Z,4.60
2019-01-02T02:56:01.857Z,8.97
2019-01-02T02:58:30.744Z,3.60
2019-01-02T03:00:59.641Z,3.47
2019-01-02T03:03:28.533Z,2.40
2019-01-02T03:05:57.450Z,7.10
2019-01-02T03:08:26.027Z,4.13
2019-01-02T03:10:54.996Z,2.00
2019-01-02T03:13:23.883Z,4.00
2019-01-02T03:15:52.592Z,5.50
2019-01-02T03:18:21.638Z,3.40
2019-01-02T03:20:50.028Z,3.17
2019-01-02T03:23:18.716Z,2.43
2019-01-02T03:25:47.503Z,3.83
2019-01-02T03:28:16.561Z,2.50
2019-01-02T03:30:45.701Z,3.17
2019-01-02T03:33:14.499Z,3.50
2019-01-02T03:35:42.986Z,3.50
2019-01-02T03:38:11.893Z,4.07
2019-01-02T03:40:40.576Z,6.73
2019-01-02T03:43:09.956Z,9.80
2019-01-02T03:45:38.917Z,3.47
2019-01-02T03:48:07.594Z,3.53
2019-01-02T03:50:36.339Z,2.87
2019-01-02T03:53:04.767Z,2.70
2019-01-02T03:55:34.116Z,2.07
2019-01-02T03:58:02.654Z,2.90
2019-01-02T04:00:31.083Z,6.23
2019-01-02T04:02:59.464Z,2.33
2019-01-02T04:05:27.887Z,2.63
2019-01-02T04:07:59.718Z,5.63
2019-01-02T04:10:28.091Z,4.20
2019-01-02T04:12:56.481Z,12.77
2019-01-02T04:15:25.023Z,7.53
2019-01-02T04:17:53.409Z,5.23
2019-01-02T04:20:22.183Z,5.77
2019-01-02T04:22:50.604Z,6.40
2019-01-02T04:25:18.989Z,5.53
2019-01-02T04:27:47.382Z,4.57
2019-01-02T04:30:16.039Z,3.03
2019-01-02T04:32:44.423Z,1.20
2019-01-02T04:35:12.813Z,3.40
2019-01-02T04:37:41.545Z,1.33
2019-01-02T04:40:11.983Z,25.70
2019-01-02T04:42:40.537Z,19.53
2019-01-02T04:45:10.951Z,8.60
2019-01-02T04:47:39.598Z,4.80
2019-01-02T04:50:11.179Z,2.67
2019-01-02T04:52:39.628Z,2.10
2019-01-02T04:55:08.413Z,3.87
2019-01-02T04:57:36.796Z,2.40
2019-01-02T05:00:11.112Z,7.13
2019-01-02T05:02:39.505Z,3.20
2019-01-02T05:05:07.961Z,3.17
2019-01-02T05:07:36.616Z,12.50
2019-01-02T05:10:08.248Z,3.87
2019-01-02T05:12:36.631Z,1.70
2019-01-02T05:15:07.699Z,5.30
2019-01-02T05:17:36.127Z,3.03
2019-01-02T05:20:07.667Z,10.40
2019-01-02T05:22:36.191Z,9.33
2019-01-02T05:25:06.115Z,5.23
2019-01-02T05:27:35.135Z,4.40
2019-01-02T05:30:06.353Z,6.20
2019-01-02T05:32:34.739Z,18.67
2019-01-02T05:35:03.119Z,4.97
2019-01-02T05:37:31.807Z,9.03
2019-01-02T05:40:00.209Z,5.30
2019-01-02T05:42:28.595Z,10.10
2019-01-02T05:44:57.028Z,7.53
2019-01-02T05:47:26.563Z,12.23
2019-01-02T05:49:55.206Z,9.90
2019-01-02T05:52:24.091Z,11.97
2019-01-02T05:54:52.707Z,14.30
2019-01-02T05:57:21.093Z,11.53
2019-01-02T05:59:49.960Z,17.00
2019-01-02T06:02:18.412Z,15.33
2019-01-02T06:04:47.213Z,9.77
2019-01-02T06:07:15.872Z,12.27
2019-01-02T06:09:44.411Z,10.30
2019-01-02T06:12:13.173Z,15.23
2019-01-02T06:14:41.584Z,11.90
2019-01-02T06:17:10.043Z,11.90
2019-01-02T06:19:38.432Z,19.90
2019-01-02T06:22:06.863Z,14.30
2019-01-02T06:24:35.286Z,14.10
2019-01-02T06:27:03.687Z,16.93
2019-01-02T06:29:32.111Z,13.07
2019-01-02T06:32:00.499Z,15.27
2019-01-02T06:34:28.894Z,12.80
2019-01-02T06:36:57.326Z,14.00
2019-01-02T06:39:25.707Z,8.83
2019-01-02T06:41:54.095Z,6.17
2019-01-02T06:44:22.875Z,12.03
2019-01-02T06:46:51.512Z,16.77
2019-01-02T06:49:21.283Z,13.40
2019-01-02T06:51:49.884Z,13.50
2019-01-02T06:54:18.628Z,18.47
2019-01-02T06:56:47.016Z,13.03
2019-01-02T06:59:15.525Z,13.77
2019-01-02T07:01:43.923Z,12.70
2019-01-02T07:04:12.480Z,11.30
2019-01-02T07:06:40.941Z,9.97
2019-01-02T07:09:09.603Z,13.37
2019-01-02T07:11:38.287Z,8.23
2019-01-02T07:14:06.711Z,9.97
2019-01-02T07:16:35.092Z,15.53
2019-01-02T07:19:03.481Z,9.07
2019-01-02T07:21:31.908Z,10.07
2019-01-02T07:24:00.433Z,9.33
2019-01-02T07:26:28.871Z,7.07
2019-01-02T07:28:57.313Z,8.23
2019-01-02T07:31:25.907Z,6.80
2019-01-02T07:33:57.694Z,14.10
2019-01-02T07:36:32.071Z,17.37
2019-01-02T07:39:24.615Z,11.90
2019-01-02T07:42:20.706Z,11.60
2019-01-02T07:44:52.450Z,14.23
2019-01-02T07:47:57.208Z,14.17
2019-01-02T07:50:29.870Z,12.90
2019-01-02T07:53:13.610Z,16.27
2019-01-02T07:56:18.741Z,13.57
2019-01-02T07:58:50.699Z,16.50
2019-01-02T08:01:37.539Z,16.10
2019-01-02T08:04:24.635Z,15.37
2019-01-02T08:07:02.095Z,8.73
2019-01-02T08:10:09.372Z,8.60
2019-01-02T08:12:53.174Z,11.57
2019-01-02T08:15:42.442Z,10.10
2019-01-02T08:18:14.186Z,14.00
2019-01-02T08:20:51.807Z,32.10
2019-01-02T08:23:42.901Z,15.83
2019-01-02T08:26:26.848Z,16.87
2019-01-02T08:29:01.196Z,23.67
2019-01-02T08:31:49.204Z,16.63
2019-01-02T08:34:32.992Z,13.43
2019-01-02T08:37:16.526Z,16.23
2019-01-02T08:40:19.204Z,19.47
2019-01-02T08:42:56.638Z,19.93
2019-01-02T08:45:31.268Z,17.03
2019-01-02T08:48:33.272Z,23.30
2019-01-02T08:51:23.764Z,21.30
2019-01-02T08:54:15.032Z,16.10
2019-01-02T08:57:01.586Z,20.37
2019-01-02T09:00:00.970Z,13.13
2019-01-02T09:02:50.661Z,20.70
2019-01-02T09:05:39.257Z,14.70
2019-01-02T09:08:25.192Z,21.73
2019-01-02T09:10:59.487Z,16.87
2019-01-02T09:13:34.167Z,9.90
2019-01-02T09:16:23.062Z,16.40
2019-01-02T09:19:00.509Z,16.47
2019-01-02T09:21:51.506Z,13.80
2019-01-02T09:24:23.521Z,14.50
2019-01-02T09:26:58.288Z,13.53
2019-01-02T09:29:45.264Z,12.67
2019-01-02T09:32:28.740Z,17.23
2019-01-02T09:35:06.421Z,19.90
2019-01-02T09:37:50.151Z,19.17
2019-01-02T09:40:37.179Z,16.67
2019-01-02T09:43:37.310Z,19.77
2019-01-02T09:46:14.763Z,24.50
2019-01-02T09:49:04.467Z,20.10
2019-01-02T09:51:48.191Z,11.37
2019-01-02T09:54:37.700Z,10.90
2019-01-02T09:57:15.480Z,16.47
2019-01-02T10:00:05.608Z,22.63
2019-01-02T10:02:40.027Z,19.20
2019-01-02T10:05:27.264Z,13.10
2019-01-02T10:07:59.433Z,10.80
2019-01-02T10:10:34.261Z,26.83
2019-01-02T10:13:18.100Z,21.40
2019-01-02T10:15:55.856Z,139.30
2019-01-02T10:18:33.088Z,33.77
2019-01-02T10:21:20.182Z,23.63
2019-01-02T10:24:00.995Z,21.20
2019-01-02T10:26:47.838Z,21.27
2019-01-02T10:29:29.766Z,14.27
2019-01-02T10:32:07.576Z,13.30
2019-01-02T10:34:52.444Z,14.83
2019-01-02T10:37:32.356Z,15.97
2019-01-02T10:40:23.519Z,16.93
2019-01-02T10:43:10.254Z,16.33
2019-01-02T10:46:09.923Z,17.10
2019-01-02T10:48:56.565Z,13.23
2019-01-02T10:52:00.933Z,11.60
2019-01-02T10:54:53.581Z,14.03
2019-01-02T10:57:34.976Z,23.37
2019-01-02T11:00:30.689Z,33.43
2019-01-02T11:03:05.565Z,18.33
2019-01-02T11:05:55.550Z,23.70
2019-01-02T11:09:04.234Z,29.53
2019-01-02T11:11:38.803Z,29.07
2019-01-02T11:14:16.928Z,19.83
2019-01-02T11:16:48.688Z,25.93
2019-01-02T11:19:42.750Z,13.33
2019-01-02T11:22:29.726Z,19.40
2019-01-02T11:25:13.110Z,33.47
2019-01-02T11:27:47.497Z,12.33
2019-01-02T11:30:39.496Z,18.97
2019-01-02T11:33:23.781Z,10.73
2019-01-02T11:36:30.725Z,27.43
2019-01-02T11:39:15.086Z,102.87
2019-01-02T11:41:55.623Z,14.93
2019-01-02T11:44:46.784Z,23.43
2019-01-02T11:47:15.868Z,20.77
2019-01-02T11:49:44.414Z,23.83
2019-01-02T11:52:13.481Z,29.20
2019-01-02T11:54:42.065Z,19.97
2019-01-02T11:57:10.629Z,21.03
2019-01-02T11:59:40.722Z,18.57
2019-01-02T12:02:09.507Z,25.83
2019-01-02T12:04:38.424Z,26.23
2019-01-02T12:07:08.993Z,23.13
2019-01-02T12:09:38.276Z,17.10
2019-01-02T12:12:06.971Z,59.67
2019-01-02T12:14:36.482Z,196.50
2019-01-02T12:17:07.142Z,143.93
2019-01-02T12:19:42.952Z,110.13
2019-01-02T12:22:09.190Z,85.87
2019-01-02T12:24:38.292Z,65.90
2019-01-02T12:27:07.283Z,48.43
2019-01-02T12:29:36.376Z,26.17
2019-01-02T12:32:11.098Z,46.53
2019-01-02T12:34:39.805Z,44.73
2019-01-02T12:37:09.703Z,67.43
2019-01-02T12:39:38.982Z,104.80
2019-01-02T12:42:07.624Z,54.17
2019-01-02T12:44:40.117Z,35.77
2019-01-02T12:47:08.682Z,43.07
2019-01-02T12:49:37.454Z,79.27
2019-01-02T12:52:05.907Z,110.97
2019-01-02T12:54:34.330Z,95.80
2019-01-02T12:57:02.963Z,68.37
2019-01-02T12:59:31.440Z,65.47
2019-01-02T13:02:13.449Z,42.63
2019-01-02T13:04:45.315Z,65.43
2019-01-02T13:07:22.806Z,34.03
2019-01-02T13:09:57.923Z,73.20
2019-01-02T13:12:44.827Z,121.40
2019-01-02T13:15:25.344Z,33.67
2019-01-02T13:17:57.413Z,75.73
2019-01-02T13:20:40.913Z,21.93
2019-01-02T13:23:36.895Z,16.83
2019-01-02T13:26:14.109Z,224.10
2019-01-02T13:29:04.823Z,23.87
2019-01-02T13:31:42.259Z,36.70
2019-01-02T13:34:31.048Z,43.27
2019-01-02T13:37:26.568Z,31.10
2019-01-02T13:40:24.464Z,12.83
2019-01-02T13:42:56.223Z,23.73
2019-01-02T13:45:28.010Z,26.57
2019-01-02T13:48:06.018Z,21.50
2019-01-02T13:50:43.638Z,28.43
2019-01-02T13:53:14.002Z,12.77
2019-01-02T13:55:48.621Z,78.70
2019-01-02T13:58:21.771Z,72.67
2019-01-02T14:01:00.791Z,149.20
2019-01-02T14:03:30.320Z,55.57
2019-01-02T14:05:59.612Z,110.87
2019-01-02T14:08:29.669Z,103.17
2019-01-02T14:10:59.735Z,139.90
2019-01-02T14:13:28.200Z,93.70
2019-01-02T14:15:56.812Z,96.60
2019-01-02T14:18:25.278Z,70.90
2019-01-02T14:20:53.945Z,89.20
2019-01-02T14:23:22.343Z,77.73
2019-01-02T14:25:51.304Z,52.57
2019-01-02T14:28:19.876Z,38.33
2019-01-02T14:30:48.274Z,37.03
2019-01-02T14:33:16.833Z,17.20
2019-01-02T14:35:45.810Z,40.50
2019-01-02T14:38:14.179Z,17.00
2019-01-02T14:40:43.181Z,26.93
2019-01-02T14:43:11.579Z,22.50
2019-01-02T14:45:40.382Z,16.93
2019-01-02T14:48:09.307Z,29.10
2019-01-02T14:50:38.227Z,28.37
2019-01-02T14:53:06.759Z,18.43
2019-01-02T14:55:35.452Z,14.03
2019-01-02T14:58:03.912Z,19.73
2019-01-02T15:00:32.392Z,15.97
2019-01-02T15:03:00.966Z,25.17
2019-01-02T15:05:30.604Z,31.67
2019-01-02T15:07:59.003Z,18.10
2019-01-02T15:10:27.774Z,16.93
2019-01-02T15:12:56.366Z,29.33
2019-01-02T15:15:24.755Z,18.77
2019-01-02T15:17:53.229Z,15.13
2019-01-02T15:20:21.662Z,9.57
2019-01-02T15:22:50.219Z,16.53
2019-01-02T15:25:18.745Z,17.50
2019-01-02T15:27:47.299Z,14.13
2019-01-02T15:30:17.767Z,19.73
2019-01-02T15:32:53.575Z,12.17
2019-01-02T15:35:25.641Z,11.00
2019-01-02T15:37:55.220Z,18.37
2019-01-02T15:40:28.057Z,20.17
2019-01-02T15:43:01.356Z,17.77
2019-01-02T15:45:32.036Z,27.27
2019-01-02T15:48:02.696Z,42.03
2019-01-02T15:50:33.744Z,121.70
2019-01-02T15:53:04.955Z,29.07
2019-01-02T15:55:37.052Z,36.27
2019-01-02T15:58:07.797Z,34.90
2019-01-02T16:00:39.571Z,57.33
2019-01-02T16:03:18.093Z,86.13
2019-01-02T16:05:47.907Z,32.73
2019-01-02T16:08:17.873Z,22.30
2019-01-02T16:10:50.210Z,40.03
2019-01-02T16:13:18.719Z,42.77
2019-01-02T16:15:47.827Z,83.27
2019-01-02T16:18:18.655Z,28.93
2019-01-02T16:20:47.207Z,28.90
2019-01-02T16:23:16.075Z,123.87
2019-01-02T16:25:50.421Z,49.40
2019-01-02T16:28:27.565Z,138.70
2019-01-02T16:30:56.319Z,48.53
2019-01-02T16:33:26.904Z,33.87
2019-01-02T16:35:56.983Z,40.50
2019-01-02T16:38:29.441Z,36.33
2019-01-02T16:40:58.661Z,27.10
2019-01-02T16:43:27.523Z,22.67
2019-01-02T16:46:02.487Z,22.80
2019-01-02T16:48:26.873Z,18.47
2019-01-02T16:50:55.891Z,19.03
2019-01-02T16:53:26.800Z,31.83
2019-01-02T16:55:56.472Z,20.23
2019-01-02T16:58:28.624Z,23.90
2019-01-02T17:00:58.077Z,23.57
2019-01-02T17:03:27.303Z,50.93
2019-01-02T17:05:56.418Z,17.33
2019-01-02T17:08:25.973Z,26.80
2019-01-02T17:11:00.472Z,30.43
2019-01-02T17:13:29.199Z,26.13
2019-01-02T17:15:57.730Z,45.90
2019-01-02T17:18:26.203Z,39.10
2019-01-02T17:20:55.320Z,74.57
2019-01-02T17:23:26.326Z,69.77
2019-01-02T17:25:55.761Z,81.97
2019-01-02T17:28:24.210Z,124.13
2019-01-02T17:30:53.532Z,27.13
2019-01-02T17:33:23.743Z,23.00
2019-01-02T17:35:54.252Z,52.13
2019-01-02T17:38:22.844Z,205.67
2019-01-02T17:40:55.130Z,46.20
2019-01-02T17:43:38.479Z,185.13
2019-01-02T17:46:07.796Z,29.13
2019-01-02T17:48:38.498Z,64.77
2019-01-02T17:51:08.197Z,70.60
2019-01-02T17:53:38.986Z,150.17
2019-01-02T17:56:14.491Z,87.33
2019-01-02T17:58:49.021Z,80.33
2019-01-02T18:01:21.532Z,89.20
2019-01-02T18:03:53.961Z,144.67
2019-01-02T18:06:26.433Z,138.97
2019-01-02T18:08:58.866Z,137.80
2019-01-02T18:11:28.794Z,102.80
2019-01-02T18:13:57.691Z,265.90
2019-01-02T18:16:34.265Z,123.30
2019-01-02T18:19:10.433Z,173.87
2019-01-02T18:21:38.850Z,120.93
2019-01-02T18:24:07.316Z,83.00
2019-01-02T18:26:36.072Z,99.73
2019-01-02T18:29:05.516Z,246.00
2019-01-02T18:31:35.526Z,90.93
2019-01-02T18:34:04.331Z,374.37
2019-01-02T18:36:32.943Z,227.37
2019-01-02T18:39:01.837Z,132.83
2019-01-02T18:41:32.105Z,65.87
2019-01-02T18:44:00.840Z,277.53
2019-01-02T18:46:30.418Z,280.73
2019-01-02T18:48:59.538Z,63.80
2019-01-02T18:51:28.026Z,125.73
2019-01-02T18:53:56.855Z,125.83
2019-01-02T18:56:25.923Z,87.60
2019-01-02T18:58:54.486Z,66.67
2019-01-02T19:01:23.151Z,106.57
2019-01-02T19:03:52.485Z,102.17
2019-01-02T19:06:23.073Z,83.53
2019-01-02T19:08:52.131Z,61.73
2019-01-02T19:11:22.516Z,61.03
2019-01-02T19:13:51.602Z,51.27
2019-01-02T19:16:22.601Z,62.73
2019-01-02T19:18:51.956Z,50.57
2019-01-02T19:21:21.675Z,57.47
2019-01-02T19:23:50.360Z,24.00
2019-01-02T19:26:20.983Z,14.60
2019-01-02T19:28:50.498Z,38.37
2019-01-02T19:31:22.882Z,62.70
2019-01-02T19:33:52.591Z,35.80
2019-01-02T19:36:21.303Z,37.63
2019-01-02T19:38:52.654Z,33.50
2019-01-02T19:41:24.619Z,29.87
2019-01-02T19:43:54.130Z,20.03
2019-01-02T19:46:22.904Z,41.37
2019-01-02T19:48:52.372Z,25.13
2019-01-02T19:51:21.406Z,26.13
2019-01-02T19:53:51.568Z,44.40
2019-01-02T19:56:22.197Z,65.23
2019-01-02T19:58:51.623Z,26.47
2019-01-02T20:01:20.056Z,23.30
2019-01-02T20:03:51.468Z,32.53
2019-01-02T20:06:24.896Z,58.43
2019-01-02T20:08:54.212Z,15.73
2019-01-02T20:11:31.524Z,23.70
2019-01-02T20:14:01.745Z,20.33
2019-01-02T20:16:31.525Z,17.63
2019-01-02T20:19:00.775Z,30.27
2019-01-02T20:21:29.833Z,19.97
2019-01-02T20:23:58.602Z,30.90
2019-01-02T20:26:31.565Z,27.10
2019-01-02T20:28:58.636Z,18.47
2019-01-02T20:31:27.323Z,18.73
2019-01-02T20:33:55.948Z,19.20
2019-01-02T20:36:24.618Z,23.40
2019-01-02T20:38:53.375Z,31.30
2019-01-02T20:41:22.286Z,60.47
2019-01-02T20:43:51.513Z,25.23
2019-01-02T20:46:19.972Z,43.43
2019-01-02T20:48:49.629Z,31.73
2019-01-02T20:51:18.659Z,19.83
2019-01-02T20:53:48.152Z,29.13
2019-01-02T20:56:17.039Z,32.10
2019-01-02T20:58:45.775Z,31.37
2019-01-02T21:01:15.531Z,37.20
2019-01-02T21:03:44.342Z,62.97
2019-01-02T21:06:12.983Z,18.03
2019-01-02T21:08:41.378Z,19.60
2019-01-02T21:11:10.041Z,18.03
2019-01-02T21:13:40.503Z,29.83
2019-01-02T21:16:10.048Z,17.87
2019-01-02T21:18:39.493Z,26.73
2019-01-02T21:21:07.977Z,19.13
2019-01-02T21:23:36.747Z,18.80
2019-01-02T21:26:05.809Z,21.00
2019-01-02T21:28:34.431Z,21.23
2019-01-02T21:31:03.612Z,15.90
2019-01-02T21:33:32.868Z,19.90
2019-01-02T21:36:01.962Z,18.63
2019-01-02T21:38:30.752Z,22.17
2019-01-02T21:41:18.342Z,15.70
2019-01-02T21:43:47.002Z,18.33
2019-01-02T21:46:16.330Z,14.53
2019-01-02T21:48:45.018Z,23.27
2019-01-02T21:51:14.926Z,22.60
2019-01-02T21:53:43.687Z,40.67
2019-01-02T21:56:13.185Z,17.13
2019-01-02T21:58:41.569Z,17.37
2019-01-02T22:01:10.490Z,40.67
2019-01-02T22:03:39.161Z,20.67
2019-01-02T22:06:07.848Z,30.40
2019-01-02T22:08:36.676Z,17.33
2019-01-02T22:11:05.376Z,17.07
2019-01-02T22:13:33.780Z,18.10
2019-01-02T22:19:06.988Z,12.53
2019-01-02T22:21:35.997Z,12.83
2019-01-02T22:24:04.636Z,12.87
2019-01-02T22:26:33.307Z,15.03
2019-01-02T22:29:02.064Z,13.50
2019-01-02T22:31:30.972Z,13.20
2019-01-02T22:33:59.632Z,61.17
2019-01-02T22:36:28.186Z,22.70
2019-01-02T22:38:58.179Z,14.00
2019-01-02T22:41:27.742Z,44.53
2019-01-02T22:43:56.326Z,51.77
2019-01-02T22:46:25.518Z,25.63
2019-01-02T22:48:54.683Z,17.67
2019-01-02T22:51:23.707Z,29.77
2019-01-02T22:53:55.380Z,20.10
2019-01-02T22:56:23.582Z,24.23
2019-01-02T22:58:52.236Z,15.23
2019-01-02T23:01:22.723Z,15.70
2019-01-02T23:03:53.337Z,18.13
2019-01-02T23:06:26.389Z,22.97
2019-01-02T23:08:59.449Z,14.87
2019-01-02T23:11:35.357Z,18.50
2019-01-02T23:14:21.705Z,18.73
2019-01-02T23:16:54.863Z,20.53
2019-01-02T23:19:32.067Z,33.57
2019-01-02T23:22:05.260Z,14.00
2019-01-02T23:24:44.254Z,19.43
2019-01-02T23:27:31.090Z,21.27
2019-01-02T23:30:04.215Z,11.80
2019-01-02T23:32:50.717Z,13.17
2019-01-02T23:35:26.878Z,17.67
2019-01-02T23:38:12.038Z,18.13
2019-01-02T23:40:47.933Z,11.60
2019-01-02T23:43:33.240Z,16.23
2019-01-02T23:46:21.441Z,14.33
2019-01-02T23:48:51.637Z,12.87
2019-01-02T23:51:21.850Z,11.73
2019-01-02T23:53:52.182Z,14.47
2019-01-02T23:56:22.535Z,15.03
2019-01-02T23:58:58.596Z,12.60
